sensor_id;sensor_type;location;lat;lon;timestamp;P1;durP1;ratioP1;P2;durP2;ratioP2
78336;SDS011;67610;51.588;7.002;2023-02-28T00:01:22;7.72;;;2.90;;
78336;SDS011;67610;51.588;7.002;2023-02-28T00:03:48;5.57;;;3.30;;
78336;SDS011;67610;51.588;7.002;2023-02-28T00:06:13;7.63;;;3.40;;
78336;SDS011;67610;51.588;7.002;2023-02-28T00:08:39;6.65;;;3.10;;
78336;SDS011;67610;51.588;7.002;2023-02-28T00:11:05;8.45;;;3.20;;
78336;SDS011;67610;51.588;7.002;2023-02-28T00:13:33;6.78;;;3.70;;
78336;SDS011;67610;51.588;7.002;2023-02-28T00:16:07;6.35;;;3.20;;
78336;SDS011;67610;51.588;7.002;2023-02-28T00:18:38;4.88;;;3.08;;
78336;SDS011;67610;51.588;7.002;2023-02-28T00:21:04;5.93;;;3.22;;
78336;SDS011;67610;51.588;7.002;2023-02-28T00:23:30;5.35;;;3.28;;
78336;SDS011;67610;51.588;7.002;2023-02-28T00:25:55;9.30;;;4.07;;
78336;SDS011;67610;51.588;7.002;2023-02-28T00:28:21;5.13;;;3.38;;
78336;SDS011;67610;51.588;7.002;2023-02-28T00:30:46;6.30;;;2.88;;
78336;SDS011;67610;51.588;7.002;2023-02-28T00:33:12;5.22;;;3.17;;
78336;SDS011;67610;51.588;7.002;2023-02-28T00:35:37;5.18;;;2.78;;
78336;SDS011;67610;51.588;7.002;2023-02-28T00:38:03;5.25;;;2.70;;
78336;SDS011;67610;51.588;7.002;2023-02-28T00:40:28;6.47;;;3.00;;
78336;SDS011;67610;51.588;7.002;2023-02-28T00:42:54;4.78;;;2.58;;
78336;SDS011;67610;51.588;7.002;2023-02-28T00:45:19;5.85;;;3.20;;
78336;SDS011;67610;51.588;7.002;2023-02-28T00:47:44;4.90;;;2.75;;
78336;SDS011;67610;51.588;7.002;2023-02-28T00:50:11;5.13;;;2.83;;
78336;SDS011;67610;51.588;7.002;2023-02-28T00:52:37;4.63;;;2.80;;
78336;SDS011;67610;51.588;7.002;2023-02-28T00:55:02;5.38;;;3.17;;
78336;SDS011;67610;51.588;7.002;2023-02-28T00:57:28;5.85;;;2.83;;
78336;SDS011;67610;51.588;7.002;2023-02-28T00:59:54;5.35;;;2.83;;
78336;SDS011;67610;51.588;7.002;2023-02-28T01:02:20;4.30;;;2.60;;
78336;SDS011;67610;51.588;7.002;2023-02-28T01:04:46;6.07;;;3.00;;
78336;SDS011;67610;51.588;7.002;2023-02-28T01:07:12;5.40;;;2.92;;
78336;SDS011;67610;51.588;7.002;2023-02-28T01:09:38;4.72;;;2.90;;
78336;SDS011;67610;51.588;7.002;2023-02-28T01:12:04;6.40;;;2.72;;
78336;SDS011;67610;51.588;7.002;2023-02-28T01:14:29;3.88;;;2.60;;
78336;SDS011;67610;51.588;7.002;2023-02-28T01:16:54;7.03;;;2.90;;
78336;SDS011;67610;51.588;7.002;2023-02-28T01:19:20;4.63;;;2.65;;
78336;SDS011;67610;51.588;7.002;2023-02-28T01:21:45;4.53;;;2.80;;
78336;SDS011;67610;51.588;7.002;2023-02-28T01:24:11;4.40;;;2.70;;
78336;SDS011;67610;51.588;7.002;2023-02-28T01:26:36;4.60;;;2.80;;
78336;SDS011;67610;51.588;7.002;2023-02-28T01:29:01;4.38;;;2.72;;
78336;SDS011;67610;51.588;7.002;2023-02-28T01:31:27;5.13;;;2.60;;
78336;SDS011;67610;51.588;7.002;2023-02-28T01:33:53;4.88;;;2.40;;
78336;SDS011;67610;51.588;7.002;2023-02-28T01:36:20;6.07;;;2.80;;
78336;SDS011;67610;51.588;7.002;2023-02-28T01:38:47;6.75;;;2.47;;
78336;SDS011;67610;51.588;7.002;2023-02-28T01:41:15;3.92;;;2.38;;
78336;SDS011;67610;51.588;7.002;2023-02-28T01:46:07;5.30;;;2.70;;
78336;SDS011;67610;51.588;7.002;2023-02-28T01:48:34;4.30;;;2.33;;
78336;SDS011;67610;51.588;7.002;2023-02-28T01:51:07;3.75;;;2.42;;
78336;SDS011;67610;51.588;7.002;2023-02-28T01:53:37;4.57;;;2.50;;
78336;SDS011;67610;51.588;7.002;2023-02-28T01:56:07;3.78;;;2.30;;
78336;SDS011;67610;51.588;7.002;2023-02-28T01:58:38;4.32;;;2.30;;
78336;SDS011;67610;51.588;7.002;2023-02-28T02:01:03;4.95;;;2.50;;
78336;SDS011;67610;51.588;7.002;2023-02-28T02:03:29;4.00;;;2.40;;
78336;SDS011;67610;51.588;7.002;2023-02-28T02:05:56;4.25;;;2.58;;
78336;SDS011;67610;51.588;7.002;2023-02-28T02:08:23;4.72;;;2.58;;
78336;SDS011;67610;51.588;7.002;2023-02-28T02:10:54;4.10;;;2.40;;
78336;SDS011;67610;51.588;7.002;2023-02-28T02:13:44;4.55;;;2.53;;
78336;SDS011;67610;51.588;7.002;2023-02-28T02:25:19;6.13;;;2.35;;
78336;SDS011;67610;51.588;7.002;2023-02-28T02:28:13;5.70;;;2.35;;
78336;SDS011;67610;51.588;7.002;2023-02-28T02:31:27;5.97;;;2.70;;
78336;SDS011;67610;51.588;7.002;2023-02-28T02:45:34;3.85;;;2.10;;
78336;SDS011;67610;51.588;7.002;2023-02-28T02:48:01;3.67;;;2.08;;
78336;SDS011;67610;51.588;7.002;2023-02-28T02:50:31;5.18;;;2.90;;
78336;SDS011;67610;51.588;7.002;2023-02-28T02:53:01;4.60;;;2.60;;
78336;SDS011;67610;51.588;7.002;2023-02-28T02:55:30;4.03;;;2.40;;
78336;SDS011;67610;51.588;7.002;2023-02-28T02:58:01;4.93;;;2.40;;
78336;SDS011;67610;51.588;7.002;2023-02-28T03:00:34;4.57;;;2.22;;
78336;SDS011;67610;51.588;7.002;2023-02-28T03:03:04;2.88;;;1.83;;
78336;SDS011;67610;51.588;7.002;2023-02-28T03:05:53;3.67;;;2.00;;
78336;SDS011;67610;51.588;7.002;2023-02-28T03:08:17;3.13;;;1.88;;
78336;SDS011;67610;51.588;7.002;2023-02-28T03:10:48;3.35;;;2.00;;
78336;SDS011;67610;51.588;7.002;2023-02-28T03:21:02;4.88;;;2.55;;
78336;SDS011;67610;51.588;7.002;2023-02-28T03:23:45;3.88;;;2.13;;
78336;SDS011;67610;51.588;7.002;2023-02-28T03:26:19;4.72;;;2.15;;
78336;SDS011;67610;51.588;7.002;2023-02-28T03:31:48;5.20;;;2.42;;
78336;SDS011;67610;51.588;7.002;2023-02-28T03:34:22;4.63;;;2.20;;
78336;SDS011;67610;51.588;7.002;2023-02-28T03:36:57;4.28;;;2.00;;
78336;SDS011;67610;51.588;7.002;2023-02-28T03:42:08;5.45;;;2.20;;
78336;SDS011;67610;51.588;7.002;2023-02-28T03:44:41;4.20;;;2.10;;
78336;SDS011;67610;51.588;7.002;2023-02-28T03:47:12;3.90;;;2.15;;
78336;SDS011;67610;51.588;7.002;2023-02-28T03:49:56;3.20;;;2.05;;
78336;SDS011;67610;51.588;7.002;2023-02-28T03:54:59;3.10;;;2.00;;
78336;SDS011;67610;51.588;7.002;2023-02-28T04:00:27;4.53;;;1.80;;
78336;SDS011;67610;51.588;7.002;2023-02-28T04:02:53;4.22;;;2.17;;
78336;SDS011;67610;51.588;7.002;2023-02-28T04:05:20;3.08;;;2.10;;
78336;SDS011;67610;51.588;7.002;2023-02-28T04:07:46;3.35;;;1.92;;
78336;SDS011;67610;51.588;7.002;2023-02-28T04:10:12;3.88;;;2.28;;
78336;SDS011;67610;51.588;7.002;2023-02-28T04:12:38;3.28;;;1.92;;
78336;SDS011;67610;51.588;7.002;2023-02-28T04:15:04;5.10;;;2.05;;
78336;SDS011;67610;51.588;7.002;2023-02-28T04:17:30;3.25;;;2.03;;
78336;SDS011;67610;51.588;7.002;2023-02-28T04:19:55;4.82;;;2.08;;
78336;SDS011;67610;51.588;7.002;2023-02-28T04:22:22;2.45;;;1.83;;
78336;SDS011;67610;51.588;7.002;2023-02-28T04:24:50;3.00;;;2.00;;
78336;SDS011;67610;51.588;7.002;2023-02-28T04:27:16;3.10;;;2.00;;
78336;SDS011;67610;51.588;7.002;2023-02-28T04:29:41;3.30;;;1.95;;
78336;SDS011;67610;51.588;7.002;2023-02-28T04:32:09;4.35;;;2.10;;
78336;SDS011;67610;51.588;7.002;2023-02-28T04:34:35;5.13;;;1.92;;
78336;SDS011;67610;51.588;7.002;2023-02-28T04:37:01;3.97;;;2.10;;
78336;SDS011;67610;51.588;7.002;2023-02-28T04:39:28;2.88;;;1.90;;
78336;SDS011;67610;51.588;7.002;2023-02-28T04:41:54;2.80;;;1.88;;
78336;SDS011;67610;51.588;7.002;2023-02-28T04:44:20;3.88;;;1.85;;
78336;SDS011;67610;51.588;7.002;2023-02-28T04:46:47;3.70;;;2.10;;
78336;SDS011;67610;51.588;7.002;2023-02-28T04:49:13;2.83;;;1.73;;
78336;SDS011;67610;51.588;7.002;2023-02-28T04:51:39;3.30;;;2.00;;
78336;SDS011;67610;51.588;7.002;2023-02-28T04:54:05;3.95;;;2.05;;
78336;SDS011;67610;51.588;7.002;2023-02-28T04:56:31;4.95;;;2.00;;
78336;SDS011;67610;51.588;7.002;2023-02-28T04:58:56;5.03;;;2.38;;
78336;SDS011;67610;51.588;7.002;2023-02-28T05:01:26;3.50;;;1.90;;
78336;SDS011;67610;51.588;7.002;2023-02-28T05:03:52;4.43;;;2.30;;
78336;SDS011;67610;51.588;7.002;2023-02-28T05:06:19;4.00;;;2.50;;
78336;SDS011;67610;51.588;7.002;2023-02-28T05:08:45;5.03;;;2.40;;
78336;SDS011;67610;51.588;7.002;2023-02-28T05:11:17;3.58;;;2.22;;
78336;SDS011;67610;51.588;7.002;2023-02-28T05:13:47;3.70;;;2.30;;
78336;SDS011;67610;51.588;7.002;2023-02-28T05:16:13;5.82;;;2.40;;
78336;SDS011;67610;51.588;7.002;2023-02-28T05:18:39;7.65;;;2.53;;
78336;SDS011;67610;51.588;7.002;2023-02-28T05:21:05;3.88;;;1.90;;
78336;SDS011;67610;51.588;7.002;2023-02-28T05:23:31;4.18;;;2.10;;
78336;SDS011;67610;51.588;7.002;2023-02-28T05:25:57;4.25;;;2.13;;
78336;SDS011;67610;51.588;7.002;2023-02-28T05:28:22;4.53;;;2.20;;
78336;SDS011;67610;51.588;7.002;2023-02-28T05:30:47;3.45;;;2.17;;
78336;SDS011;67610;51.588;7.002;2023-02-28T05:33:13;3.63;;;2.13;;
78336;SDS011;67610;51.588;7.002;2023-02-28T05:35:39;4.65;;;2.35;;
78336;SDS011;67610;51.588;7.002;2023-02-28T05:38:06;3.78;;;1.98;;
78336;SDS011;67610;51.588;7.002;2023-02-28T05:40:31;4.28;;;2.05;;
78336;SDS011;67610;51.588;7.002;2023-02-28T05:42:57;4.18;;;2.22;;
78336;SDS011;67610;51.588;7.002;2023-02-28T05:45:23;3.85;;;2.10;;
78336;SDS011;67610;51.588;7.002;2023-02-28T05:47:48;3.65;;;1.92;;
78336;SDS011;67610;51.588;7.002;2023-02-28T05:50:13;3.35;;;2.00;;
78336;SDS011;67610;51.588;7.002;2023-02-28T05:52:39;3.20;;;2.10;;
78336;SDS011;67610;51.588;7.002;2023-02-28T05:55:04;3.63;;;2.10;;
78336;SDS011;67610;51.588;7.002;2023-02-28T05:57:30;4.10;;;2.38;;
78336;SDS011;67610;51.588;7.002;2023-02-28T05:59:55;5.13;;;2.20;;
78336;SDS011;67610;51.588;7.002;2023-02-28T06:02:21;3.95;;;2.40;;
78336;SDS011;67610;51.588;7.002;2023-02-28T06:04:46;3.28;;;1.90;;
78336;SDS011;67610;51.588;7.002;2023-02-28T06:07:11;5.28;;;2.20;;
78336;SDS011;67610;51.588;7.002;2023-02-28T06:09:37;3.60;;;2.30;;
78336;SDS011;67610;51.588;7.002;2023-02-28T06:12:03;6.10;;;2.70;;
78336;SDS011;67610;51.588;7.002;2023-02-28T06:14:32;4.03;;;2.30;;
78336;SDS011;67610;51.588;7.002;2023-02-28T06:16:59;5.30;;;2.50;;
78336;SDS011;67610;51.588;7.002;2023-02-28T06:19:25;4.13;;;2.15;;
78336;SDS011;67610;51.588;7.002;2023-02-28T06:21:52;4.75;;;2.13;;
78336;SDS011;67610;51.588;7.002;2023-02-28T06:24:18;4.65;;;2.40;;
78336;SDS011;67610;51.588;7.002;2023-02-28T06:26:48;6.03;;;2.47;;
78336;SDS011;67610;51.588;7.002;2023-02-28T06:29:13;3.90;;;2.47;;
78336;SDS011;67610;51.588;7.002;2023-02-28T06:31:46;4.78;;;2.60;;
78336;SDS011;67610;51.588;7.002;2023-02-28T06:34:12;4.82;;;2.70;;
78336;SDS011;67610;51.588;7.002;2023-02-28T06:36:38;5.45;;;2.55;;
78336;SDS011;67610;51.588;7.002;2023-02-28T06:39:04;5.72;;;2.70;;
78336;SDS011;67610;51.588;7.002;2023-02-28T06:41:30;4.45;;;2.40;;
78336;SDS011;67610;51.588;7.002;2023-02-28T06:43:55;4.20;;;2.80;;
78336;SDS011;67610;51.588;7.002;2023-02-28T06:46:21;6.80;;;2.83;;
78336;SDS011;67610;51.588;7.002;2023-02-28T06:48:47;6.20;;;2.90;;
78336;SDS011;67610;51.588;7.002;2023-02-28T06:51:14;4.93;;;2.90;;
78336;SDS011;67610;51.588;7.002;2023-02-28T06:53:45;4.97;;;2.95;;
78336;SDS011;67610;51.588;7.002;2023-02-28T06:56:12;4.72;;;3.10;;
78336;SDS011;67610;51.588;7.002;2023-02-28T06:58:39;8.55;;;3.17;;
78336;SDS011;67610;51.588;7.002;2023-02-28T07:01:06;5.72;;;3.30;;
78336;SDS011;67610;51.588;7.002;2023-02-28T07:03:32;5.05;;;2.47;;
78336;SDS011;67610;51.588;7.002;2023-02-28T07:05:58;7.03;;;3.28;;
78336;SDS011;67610;51.588;7.002;2023-02-28T07:08:24;6.30;;;2.75;;
78336;SDS011;67610;51.588;7.002;2023-02-28T07:10:54;6.40;;;3.10;;
78336;SDS011;67610;51.588;7.002;2023-02-28T07:13:20;6.10;;;3.00;;
78336;SDS011;67610;51.588;7.002;2023-02-28T07:15:56;5.40;;;2.92;;
78336;SDS011;67610;51.588;7.002;2023-02-28T07:18:23;5.47;;;2.88;;
78336;SDS011;67610;51.588;7.002;2023-02-28T07:20:48;5.57;;;3.30;;
78336;SDS011;67610;51.588;7.002;2023-02-28T07:23:14;5.38;;;3.05;;
78336;SDS011;67610;51.588;7.002;2023-02-28T07:25:39;6.30;;;2.72;;
78336;SDS011;67610;51.588;7.002;2023-02-28T07:28:05;6.03;;;2.78;;
78336;SDS011;67610;51.588;7.002;2023-02-28T07:30:30;4.72;;;2.78;;
78336;SDS011;67610;51.588;7.002;2023-02-28T07:32:55;6.03;;;2.85;;
78336;SDS011;67610;51.588;7.002;2023-02-28T07:35:21;4.45;;;2.90;;
78336;SDS011;67610;51.588;7.002;2023-02-28T07:37:47;5.85;;;3.22;;
78336;SDS011;67610;51.588;7.002;2023-02-28T07:40:12;5.60;;;2.70;;
78336;SDS011;67610;51.588;7.002;2023-02-28T07:42:39;4.13;;;2.53;;
78336;SDS011;67610;51.588;7.002;2023-02-28T07:45:05;4.25;;;2.53;;
78336;SDS011;67610;51.588;7.002;2023-02-28T07:47:32;4.78;;;2.70;;
78336;SDS011;67610;51.588;7.002;2023-02-28T07:49:57;5.93;;;2.90;;
78336;SDS011;67610;51.588;7.002;2023-02-28T07:52:23;4.30;;;2.50;;
78336;SDS011;67610;51.588;7.002;2023-02-28T07:54:52;4.93;;;2.60;;
78336;SDS011;67610;51.588;7.002;2023-02-28T07:57:17;3.80;;;2.40;;
78336;SDS011;67610;51.588;7.002;2023-02-28T07:59:43;4.68;;;2.50;;
78336;SDS011;67610;51.588;7.002;2023-02-28T08:02:15;4.38;;;2.17;;
78336;SDS011;67610;51.588;7.002;2023-02-28T08:04:42;5.75;;;2.42;;
78336;SDS011;67610;51.588;7.002;2023-02-28T08:07:07;4.28;;;2.40;;
78336;SDS011;67610;51.588;7.002;2023-02-28T08:09:33;3.13;;;2.00;;
78336;SDS011;67610;51.588;7.002;2023-02-28T08:11:59;4.28;;;2.50;;
78336;SDS011;67610;51.588;7.002;2023-02-28T08:14:24;4.38;;;2.42;;
78336;SDS011;67610;51.588;7.002;2023-02-28T08:16:50;4.05;;;2.35;;
78336;SDS011;67610;51.588;7.002;2023-02-28T08:19:15;4.13;;;2.20;;
78336;SDS011;67610;51.588;7.002;2023-02-28T08:21:41;4.57;;;2.30;;
78336;SDS011;67610;51.588;7.002;2023-02-28T08:24:06;4.30;;;2.15;;
78336;SDS011;67610;51.588;7.002;2023-02-28T08:26:32;3.75;;;2.22;;
78336;SDS011;67610;51.588;7.002;2023-02-28T08:28:57;4.45;;;2.55;;
78336;SDS011;67610;51.588;7.002;2023-02-28T08:31:23;3.33;;;2.20;;
78336;SDS011;67610;51.588;7.002;2023-02-28T08:33:48;3.70;;;2.55;;
78336;SDS011;67610;51.588;7.002;2023-02-28T08:36:16;4.68;;;2.40;;
78336;SDS011;67610;51.588;7.002;2023-02-28T08:38:41;4.50;;;2.58;;
78336;SDS011;67610;51.588;7.002;2023-02-28T08:41:08;4.60;;;2.70;;
78336;SDS011;67610;51.588;7.002;2023-02-28T08:46:02;5.57;;;2.58;;
78336;SDS011;67610;51.588;7.002;2023-02-28T08:48:29;3.70;;;2.33;;
78336;SDS011;67610;51.588;7.002;2023-02-28T08:53:26;3.50;;;2.45;;
78336;SDS011;67610;51.588;7.002;2023-02-28T08:55:55;7.82;;;3.20;;
78336;SDS011;67610;51.588;7.002;2023-02-28T08:58:26;4.80;;;2.10;;
78336;SDS011;67610;51.588;7.002;2023-02-28T09:00:52;3.30;;;2.25;;
78336;SDS011;67610;51.588;7.002;2023-02-28T09:03:18;4.40;;;2.15;;
78336;SDS011;67610;51.588;7.002;2023-02-28T09:05:57;3.53;;;2.08;;
78336;SDS011;67610;51.588;7.002;2023-02-28T09:08:24;4.25;;;2.10;;
78336;SDS011;67610;51.588;7.002;2023-02-28T09:10:50;3.20;;;2.08;;
78336;SDS011;67610;51.588;7.002;2023-02-28T09:13:17;4.30;;;1.90;;
78336;SDS011;67610;51.588;7.002;2023-02-28T09:15:42;2.78;;;1.90;;
78336;SDS011;67610;51.588;7.002;2023-02-28T09:18:08;4.05;;;2.00;;
78336;SDS011;67610;51.588;7.002;2023-02-28T09:20:33;4.03;;;2.00;;
78336;SDS011;67610;51.588;7.002;2023-02-28T09:23:02;3.10;;;2.00;;
78336;SDS011;67610;51.588;7.002;2023-02-28T09:25:28;3.05;;;2.10;;
78336;SDS011;67610;51.588;7.002;2023-02-28T09:27:53;3.35;;;2.00;;
78336;SDS011;67610;51.588;7.002;2023-02-28T09:30:18;3.03;;;1.90;;
78336;SDS011;67610;51.588;7.002;2023-02-28T09:32:44;3.13;;;1.98;;
78336;SDS011;67610;51.588;7.002;2023-02-28T09:35:17;4.25;;;2.10;;
78336;SDS011;67610;51.588;7.002;2023-02-28T09:37:43;3.40;;;2.00;;
78336;SDS011;67610;51.588;7.002;2023-02-28T09:40:09;4.05;;;2.15;;
78336;SDS011;67610;51.588;7.002;2023-02-28T09:42:35;3.88;;;2.15;;
78336;SDS011;67610;51.588;7.002;2023-02-28T09:45:02;2.92;;;2.00;;
78336;SDS011;67610;51.588;7.002;2023-02-28T09:47:39;3.83;;;1.88;;
78336;SDS011;67610;51.588;7.002;2023-02-28T09:50:30;2.60;;;1.80;;
78336;SDS011;67610;51.588;7.002;2023-02-28T09:53:11;2.78;;;1.95;;
78336;SDS011;67610;51.588;7.002;2023-02-28T09:56:15;2.97;;;1.90;;
78336;SDS011;67610;51.588;7.002;2023-02-28T09:58:47;4.47;;;2.10;;
78336;SDS011;67610;51.588;7.002;2023-02-28T10:01:20;2.83;;;2.00;;
78336;SDS011;67610;51.588;7.002;2023-02-28T10:06:46;3.38;;;2.10;;
78336;SDS011;67610;51.588;7.002;2023-02-28T10:09:24;3.75;;;2.00;;
78336;SDS011;67610;51.588;7.002;2023-02-28T10:11:56;4.22;;;2.05;;
78336;SDS011;67610;51.588;7.002;2023-02-28T10:14:28;4.03;;;2.17;;
78336;SDS011;67610;51.588;7.002;2023-02-28T10:16:59;3.00;;;1.80;;
78336;SDS011;67610;51.588;7.002;2023-02-28T10:19:30;3.92;;;2.10;;
78336;SDS011;67610;51.588;7.002;2023-02-28T10:24:48;4.15;;;2.03;;
78336;SDS011;67610;51.588;7.002;2023-02-28T10:27:23;3.17;;;1.75;;
78336;SDS011;67610;51.588;7.002;2023-02-28T10:29:53;3.10;;;2.15;;
78336;SDS011;67610;51.588;7.002;2023-02-28T10:32:21;3.72;;;2.25;;
78336;SDS011;67610;51.588;7.002;2023-02-28T10:37:20;2.92;;;2.17;;
78336;SDS011;67610;51.588;7.002;2023-02-28T10:39:46;4.20;;;2.42;;
78336;SDS011;67610;51.588;7.002;2023-02-28T10:42:19;4.28;;;2.50;;
78336;SDS011;67610;51.588;7.002;2023-02-28T10:45:25;3.58;;;2.58;;
78336;SDS011;67610;51.588;7.002;2023-02-28T11:03:56;3.78;;;2.30;;
78336;SDS011;67610;51.588;7.002;2023-02-28T11:11:28;3.28;;;2.50;;
78336;SDS011;67610;51.588;7.002;2023-02-28T11:13:58;4.38;;;2.28;;
78336;SDS011;67610;51.588;7.002;2023-02-28T11:16:36;3.50;;;2.33;;
78336;SDS011;67610;51.588;7.002;2023-02-28T11:19:03;3.35;;;2.25;;
78336;SDS011;67610;51.588;7.002;2023-02-28T11:21:36;3.42;;;1.98;;
78336;SDS011;67610;51.588;7.002;2023-02-28T11:24:24;4.53;;;1.90;;
78336;SDS011;67610;51.588;7.002;2023-02-28T11:26:53;3.05;;;2.05;;
78336;SDS011;67610;51.588;7.002;2023-02-28T11:29:24;3.75;;;2.03;;
78336;SDS011;67610;51.588;7.002;2023-02-28T11:32:01;2.25;;;1.70;;
78336;SDS011;67610;51.588;7.002;2023-02-28T11:34:29;5.90;;;2.10;;
78336;SDS011;67610;51.588;7.002;2023-02-28T11:36:56;3.08;;;1.80;;
78336;SDS011;67610;51.588;7.002;2023-02-28T11:39:22;3.40;;;2.00;;
78336;SDS011;67610;51.588;7.002;2023-02-28T11:42:08;4.05;;;1.92;;
78336;SDS011;67610;51.588;7.002;2023-02-28T11:52:56;3.33;;;1.92;;
78336;SDS011;67610;51.588;7.002;2023-02-28T12:03:26;4.60;;;2.10;;
78336;SDS011;67610;51.588;7.002;2023-02-28T12:11:30;3.95;;;2.08;;
78336;SDS011;67610;51.588;7.002;2023-02-28T12:17:06;3.22;;;2.13;;
78336;SDS011;67610;51.588;7.002;2023-02-28T12:20:33;3.97;;;2.10;;
78336;SDS011;67610;51.588;7.002;2023-02-28T12:25:51;3.53;;;2.25;;
78336;SDS011;67610;51.588;7.002;2023-02-28T12:28:21;4.15;;;2.20;;
78336;SDS011;67610;51.588;7.002;2023-02-28T12:30:57;4.65;;;2.45;;
78336;SDS011;67610;51.588;7.002;2023-02-28T12:33:32;3.15;;;2.30;;
78336;SDS011;67610;51.588;7.002;2023-02-28T12:36:03;3.53;;;2.30;;
78336;SDS011;67610;51.588;7.002;2023-02-28T12:38:37;3.92;;;2.50;;
78336;SDS011;67610;51.588;7.002;2023-02-28T12:41:14;3.72;;;2.40;;
78336;SDS011;67610;51.588;7.002;2023-02-28T12:43:48;3.42;;;2.17;;
78336;SDS011;67610;51.588;7.002;2023-02-28T12:46:22;3.67;;;2.30;;
78336;SDS011;67610;51.588;7.002;2023-02-28T12:48:52;3.53;;;2.28;;
78336;SDS011;67610;51.588;7.002;2023-02-28T12:51:21;3.42;;;2.17;;
78336;SDS011;67610;51.588;7.002;2023-02-28T12:53:52;5.80;;;2.60;;
78336;SDS011;67610;51.588;7.002;2023-02-28T12:56:37;4.70;;;2.40;;
78336;SDS011;67610;51.588;7.002;2023-02-28T13:07:50;2.92;;;2.05;;
78336;SDS011;67610;51.588;7.002;2023-02-28T13:13:04;3.83;;;2.17;;
78336;SDS011;67610;51.588;7.002;2023-02-28T13:15:29;3.17;;;2.03;;
78336;SDS011;67610;51.588;7.002;2023-02-28T13:17:56;4.25;;;2.30;;
78336;SDS011;67610;51.588;7.002;2023-02-28T13:20:34;3.22;;;2.35;;
78336;SDS011;67610;51.588;7.002;2023-02-28T13:23:16;5.85;;;2.15;;
78336;SDS011;67610;51.588;7.002;2023-02-28T13:26:05;2.70;;;2.10;;
78336;SDS011;67610;51.588;7.002;2023-02-28T13:31:26;4.13;;;2.28;;
78336;SDS011;67610;51.588;7.002;2023-02-28T13:36:37;3.90;;;2.38;;
78336;SDS011;67610;51.588;7.002;2023-02-28T13:39:44;3.20;;;2.00;;
78336;SDS011;67610;51.588;7.002;2023-02-28T13:47:39;3.15;;;1.90;;
78336;SDS011;67610;51.588;7.002;2023-02-28T13:50:22;3.08;;;2.10;;
78336;SDS011;67610;51.588;7.002;2023-02-28T14:07:00;2.75;;;2.00;;
78336;SDS011;67610;51.588;7.002;2023-02-28T14:09:29;5.45;;;2.30;;
78336;SDS011;67610;51.588;7.002;2023-02-28T14:11:59;4.90;;;2.20;;
78336;SDS011;67610;51.588;7.002;2023-02-28T14:15:01;3.35;;;2.10;;
78336;SDS011;67610;51.588;7.002;2023-02-28T14:17:28;3.60;;;2.33;;
78336;SDS011;67610;51.588;7.002;2023-02-28T14:19:53;3.40;;;2.10;;
78336;SDS011;67610;51.588;7.002;2023-02-28T14:22:35;3.55;;;2.17;;
78336;SDS011;67610;51.588;7.002;2023-02-28T14:25:26;2.83;;;2.35;;
78336;SDS011;67610;51.588;7.002;2023-02-28T14:33:47;3.35;;;2.35;;
78336;SDS011;67610;51.588;7.002;2023-02-28T14:36:38;3.83;;;2.60;;
78336;SDS011;67610;51.588;7.002;2023-02-28T14:39:06;3.83;;;2.67;;
78336;SDS011;67610;51.588;7.002;2023-02-28T14:41:37;5.05;;;2.55;;
78336;SDS011;67610;51.588;7.002;2023-02-28T14:44:17;3.97;;;2.38;;
78336;SDS011;67610;51.588;7.002;2023-02-28T14:46:52;3.70;;;2.45;;
78336;SDS011;67610;51.588;7.002;2023-02-28T14:51:47;4.70;;;2.90;;
78336;SDS011;67610;51.588;7.002;2023-02-28T14:54:16;3.47;;;2.47;;
78336;SDS011;67610;51.588;7.002;2023-02-28T14:56:44;3.15;;;2.50;;
78336;SDS011;67610;51.588;7.002;2023-02-28T14:59:25;4.15;;;2.67;;
78336;SDS011;67610;51.588;7.002;2023-02-28T15:02:12;3.42;;;2.15;;
78336;SDS011;67610;51.588;7.002;2023-02-28T15:05:01;3.97;;;2.38;;
78336;SDS011;67610;51.588;7.002;2023-02-28T15:07:41;3.65;;;2.40;;
78336;SDS011;67610;51.588;7.002;2023-02-28T15:18:54;4.93;;;2.83;;
78336;SDS011;67610;51.588;7.002;2023-02-28T15:21:24;4.00;;;2.42;;
78336;SDS011;67610;51.588;7.002;2023-02-28T15:24:05;4.78;;;2.50;;
78336;SDS011;67610;51.588;7.002;2023-02-28T15:26:36;6.53;;;2.65;;
78336;SDS011;67610;51.588;7.002;2023-02-28T15:29:20;3.65;;;2.30;;
78336;SDS011;67610;51.588;7.002;2023-02-28T15:31:49;3.58;;;2.30;;
78336;SDS011;67610;51.588;7.002;2023-02-28T15:34:39;4.05;;;2.55;;
78336;SDS011;67610;51.588;7.002;2023-02-28T15:39:54;5.30;;;2.75;;
78336;SDS011;67610;51.588;7.002;2023-02-28T15:42:22;4.68;;;2.88;;
78336;SDS011;67610;51.588;7.002;2023-02-28T15:44:52;5.28;;;2.70;;
78336;SDS011;67610;51.588;7.002;2023-02-28T15:47:19;4.18;;;2.63;;
78336;SDS011;67610;51.588;7.002;2023-02-28T15:49:49;4.82;;;2.83;;
78336;SDS011;67610;51.588;7.002;2023-02-28T15:52:19;4.38;;;2.80;;
78336;SDS011;67610;51.588;7.002;2023-02-28T15:54:49;4.40;;;2.60;;
78336;SDS011;67610;51.588;7.002;2023-02-28T15:57:17;4.35;;;2.75;;
78336;SDS011;67610;51.588;7.002;2023-02-28T16:00:01;3.90;;;2.40;;
78336;SDS011;67610;51.588;7.002;2023-02-28T16:02:32;4.25;;;2.47;;
78336;SDS011;67610;51.588;7.002;2023-02-28T16:07:31;7.22;;;2.92;;
78336;SDS011;67610;51.588;7.002;2023-02-28T16:09:59;4.15;;;2.40;;
78336;SDS011;67610;51.588;7.002;2023-02-28T16:12:29;5.78;;;2.90;;
78336;SDS011;67610;51.588;7.002;2023-02-28T16:15:00;3.78;;;2.63;;
78336;SDS011;67610;51.588;7.002;2023-02-28T16:17:31;4.15;;;2.40;;
78336;SDS011;67610;51.588;7.002;2023-02-28T16:19:59;3.70;;;2.70;;
78336;SDS011;67610;51.588;7.002;2023-02-28T16:22:25;4.05;;;2.70;;
78336;SDS011;67610;51.588;7.002;2023-02-28T16:24:50;5.57;;;2.70;;
78336;SDS011;67610;51.588;7.002;2023-02-28T16:27:17;5.97;;;2.80;;
78336;SDS011;67610;51.588;7.002;2023-02-28T16:29:54;5.20;;;2.90;;
78336;SDS011;67610;51.588;7.002;2023-02-28T16:32:19;3.83;;;2.58;;
78336;SDS011;67610;51.588;7.002;2023-02-28T16:34:46;4.47;;;2.85;;
78336;SDS011;67610;51.588;7.002;2023-02-28T16:37:15;4.20;;;2.75;;
78336;SDS011;67610;51.588;7.002;2023-02-28T16:39:43;5.18;;;2.70;;
78336;SDS011;67610;51.588;7.002;2023-02-28T16:42:16;4.75;;;2.88;;
78336;SDS011;67610;51.588;7.002;2023-02-28T16:44:54;7.30;;;3.35;;
78336;SDS011;67610;51.588;7.002;2023-02-28T16:47:20;4.38;;;2.90;;
78336;SDS011;67610;51.588;7.002;2023-02-28T16:49:46;4.10;;;2.78;;
78336;SDS011;67610;51.588;7.002;2023-02-28T16:52:12;5.35;;;3.05;;
78336;SDS011;67610;51.588;7.002;2023-02-28T16:54:39;4.68;;;2.75;;
78336;SDS011;67610;51.588;7.002;2023-02-28T16:57:05;4.88;;;2.60;;
78336;SDS011;67610;51.588;7.002;2023-02-28T16:59:40;4.82;;;2.70;;
78336;SDS011;67610;51.588;7.002;2023-02-28T17:02:12;6.47;;;2.92;;
78336;SDS011;67610;51.588;7.002;2023-02-28T17:04:40;5.07;;;2.97;;
78336;SDS011;67610;51.588;7.002;2023-02-28T17:07:08;5.18;;;2.70;;
78336;SDS011;67610;51.588;7.002;2023-02-28T17:09:37;4.30;;;2.50;;
78336;SDS011;67610;51.588;7.002;2023-02-28T17:12:03;5.72;;;2.90;;
78336;SDS011;67610;51.588;7.002;2023-02-28T17:14:28;4.22;;;2.75;;
78336;SDS011;67610;51.588;7.002;2023-02-28T17:16:54;3.55;;;2.53;;
78336;SDS011;67610;51.588;7.002;2023-02-28T17:19:19;5.70;;;2.70;;
78336;SDS011;67610;51.588;7.002;2023-02-28T17:21:45;3.92;;;2.88;;
78336;SDS011;67610;51.588;7.002;2023-02-28T17:24:17;5.38;;;3.03;;
78336;SDS011;67610;51.588;7.002;2023-02-28T17:26:43;4.63;;;2.80;;
78336;SDS011;67610;51.588;7.002;2023-02-28T17:29:15;5.30;;;3.05;;
78336;SDS011;67610;51.588;7.002;2023-02-28T17:31:42;3.90;;;2.70;;
78336;SDS011;67610;51.588;7.002;2023-02-28T17:34:08;5.72;;;3.30;;
78336;SDS011;67610;51.588;7.002;2023-02-28T17:36:33;5.00;;;3.15;;
78336;SDS011;67610;51.588;7.002;2023-02-28T17:39:00;5.45;;;2.92;;
78336;SDS011;67610;51.588;7.002;2023-02-28T17:41:26;5.43;;;2.95;;
78336;SDS011;67610;51.588;7.002;2023-02-28T17:43:52;5.07;;;2.67;;
78336;SDS011;67610;51.588;7.002;2023-02-28T17:46:19;5.47;;;2.90;;